Latest Weather Observations for Yanakie

IDV60801

Issued at 12:31 pm EST Sunday 5 July 2015 (issued every 30 minutes, with the page automatically refreshed every 10 minutes)

About weather observations | Map of weather stations | Latest weather observations for VIC | Other Formats
Station Details ID: 085301 Name: YANAKIE Lat: -38.81 Lon: 146.19 Height: 13.3 m
Data from the previous 72 hours. | See also: Recent months at Yanakie
Date/Time
EST
Temp
°C
App
Temp
°C
Dew
Point
Rel
Hum
%
Delta-T
°C
Wind Press
QNH
hPa
Press
MSL
hPa
Rain
since 9 am
mm
Dir
 
Spd
km/h
Gust
km/h
Spd
kts
Gust
kts
05/12:30pm 13.4 7.1 7.4 67 2.9 NW 30 39 16 21 1017.1 1017.1 0.0
05/12:00pm 13.1 7.5 7.1 67 2.9 NW 26 37 14 20 1017.5 1017.5 0.0
05/11:30am 13.1 7.2 7.5 69 2.7 NW 28 37 15 20 1017.9 1017.9 0.0
05/11:00am 12.4 4.9 6.5 67 2.8 NW 35 43 19 23 1018.1 1018.1 0.0
05/10:30am 11.9 5.8 6.6 70 2.5 NW 28 37 15 20 1018.3 1018.3 0.0
05/10:00am 11.6 5.5 6.5 71 2.4 NW 28 41 15 22 1018.5 1018.5 0.0
05/09:30am 10.8 4.2 6.0 72 2.2 NW 30 41 16 22 1018.6 1018.6 0.0
05/09:00am 10.3 3.6 5.7 73 2.1 NW 30 41 16 22 1018.2 1018.2 0.0
05/08:30am 9.8 3.5 5.6 75 1.9 NW 28 39 15 21 1018.2 1018.2 0.0
05/08:00am 9.5 3.1 5.3 75 1.9 NW 28 37 15 20 1018.2 1018.2 0.0
05/07:30am 9.3 2.9 5.3 76 1.8 NW 28 37 15 20 1018.1 1018.1 0.0
05/07:00am 9.1 3.1 5.3 77 1.7 NW 26 33 14 18 1017.9 1017.9 0.0
05/06:30am 9.6 3.3 5.8 77 1.7 NW 28 41 15 22 1017.7 1017.7 0.0
05/06:00am 9.5 4.0 6.0 79 1.6 NW 24 33 13 18 1018.1 1018.1 0.0
05/05:30am 9.3 4.6 6.0 80 1.5 NW 20 30 11 16 1018.0 1018.0 0.0
05/05:00am 9.4 4.7 6.1 80 1.5 NW 20 26 11 14 1018.0 1018.0 0.0
05/04:30am 9.4 3.6 6.1 80 1.5 NW 26 37 14 20 1018.0 1018.0 0.0
05/04:00am 9.1 4.0 5.8 80 1.5 NW 22 32 12 17 1018.1 1018.1 0.0
05/03:30am 9.3 4.2 5.9 79 1.6 NW 22 32 12 17 1018.3 1018.3 0.0
05/03:00am 9.3 3.8 6.0 80 1.5 NW 24 32 13 17 1018.5 1018.5 0.0
05/02:30am 9.4 3.5 5.9 79 1.6 NW 26 37 14 20 1018.6 1018.6 0.0
05/02:00am 9.6 4.1 6.0 78 1.7 NW 24 33 13 18 1018.8 1018.8 0.0
05/01:30am 9.8 3.6 6.3 79 1.6 NW 28 35 15 19 1018.9 1018.9 0.0
05/01:00am 9.3 3.4 6.0 80 1.5 NW 26 39 14 21 1019.0 1019.0 0.0
05/12:30am 9.5 4.1 6.2 80 1.5 NW 24 30 13 16 1019.0 1019.0 0.0
05/12:00am 9.3 3.9 6.4 82 1.3 NW 24 35 13 19 1019.2 1019.2 0.0
 
Date/Time
EST
Temp
°C
App
Temp
°C
Dew
Point
Rel
Hum
%
Delta-T
°C
Wind Press
QNH
hPa
Press
MSL
hPa
Rain
since 9 am
mm
Dir
 
Spd
km/h
Gust
km/h
Spd
kts
Gust
kts
04/11:30pm 9.2 3.8 6.5 83 1.3 NW 24 37 13 20 1019.3 1019.3 0.0
04/11:00pm 9.0 4.0 6.4 84 1.2 NW 22 33 12 18 1019.5 1019.5 0.0
04/10:30pm 9.5 4.2 6.8 83 1.3 NW 24 33 13 18 1019.3 1019.3 0.0
04/10:00pm 9.9 4.6 7.0 82 1.4 NW 24 32 13 17 1019.5 1019.5 0.0
04/09:30pm 9.8 4.1 6.9 82 1.4 NW 26 39 14 21 1019.6 1019.6 0.0
04/09:00pm 9.7 4.1 7.0 83 1.3 NW 26 33 14 18 1019.6 1019.6 0.0
04/08:30pm 9.5 4.2 6.9 84 1.2 NW 24 33 13 18 1019.7 1019.7 0.0
04/08:00pm 9.5 3.8 6.9 84 1.2 NW 26 35 14 19 1019.5 1019.5 0.0
04/07:30pm 9.4 3.7 6.8 84 1.2 NW 26 35 14 19 1019.6 1019.6 0.0
04/07:00pm 9.4 3.3 6.8 84 1.2 NW 28 37 15 20 1019.5 1019.5 0.0
04/06:30pm 9.5 3.1 6.9 84 1.2 NW 30 41 16 22 1019.4 1019.4 0.0
04/06:00pm 9.5 3.8 6.9 84 1.2 NW 26 35 14 19 1019.3 1019.3 0.0
04/05:30pm 9.7 3.8 7.3 85 1.1 NW 28 37 15 20 1019.1 1019.1 0.0
04/05:00pm 9.8 3.9 7.4 85 1.1 NW 28 37 15 20 1019.0 1019.0 0.0
04/04:30pm 10.6 4.4 7.8 83 1.4 NW 30 43 16 23 1019.0 1019.0 0.0
04/04:00pm 11.1 5.0 8.1 82 1.5 WNW 30 43 16 23 1019.0 1019.0 0.0
04/03:30pm 10.9 5.1 8.0 82 1.4 WNW 28 43 15 23 1018.8 1018.8 0.0
04/03:00pm 11.6 5.5 8.3 80 1.6 NW 30 41 16 22 1018.6 1018.6 0.0
04/02:30pm 10.9 4.2 8.0 82 1.4 NW 33 43 18 23 1018.4 1018.4 0.0
04/02:00pm 11.2 4.5 8.1 81 1.5 NW 33 46 18 25 1018.5 1018.5 0.0
04/01:30pm 11.1 4.6 8.0 81 1.5 NW 32 46 17 25 1018.7 1018.7 0.0
04/01:00pm 10.1 3.8 7.2 82 1.4 NW 30 43 16 23 1018.8 1018.8 0.0
04/12:30pm 10.9 4.0 7.4 79 1.7 NW 33 46 18 25 1019.1 1019.1 0.0
04/12:06pm 10.9 4.1 7.6 80 1.6 NW 33 52 18 28 1019.2 1019.2 0.0
04/12:00pm 10.8 3.6 7.5 80 1.6 NW 35 46 19 25 1019.2 1019.2 0.0
04/11:30am 9.9 3.1 7.0 82 1.4 NW 32 43 17 23 1019.7 1019.7 0.0
04/11:00am 9.9 3.6 7.2 83 1.3 WNW 30 39 16 21 1020.2 1020.2 0.0
04/10:30am 9.1 2.3 6.7 85 1.1 NW 32 43 17 23 1020.3 1020.3 0.0
04/10:00am 8.9 2.4 6.7 86 1.0 NW 30 43 16 23 1020.1 1020.1 0.0
04/09:30am 8.3 3.3 6.4 88 0.9 NW 22 33 12 18 1020.1 1020.1 0.0
04/09:00am 7.8 2.2 5.4 85 1.1 NW 24 37 13 20 1020.1 1020.1 -
04/08:30am 8.7 1.4 4.7 76 1.8 NW 32 43 17 23 1019.8 1019.8 -
04/08:00am 8.6 1.3 4.6 76 1.8 NW 32 43 17 23 1019.6 1019.6 -
04/07:30am 8.1 1.1 4.1 76 1.7 NW 30 41 16 22 1019.7 1019.7 -
04/07:00am 8.4 1.3 3.8 73 2.0 NW 30 43 16 23 1019.8 1019.8 -
04/06:44am 8.2 1.5 3.9 74 1.9 NW 28 46 15 25 1019.7 1019.7 -
04/06:30am 7.9 1.2 3.4 73 1.9 NW 28 39 15 21 1019.4 1019.4 -
04/06:00am 8.4 2.1 3.5 71 2.1 NW 26 33 14 18 1019.9 1019.9 -
04/05:30am 8.3 1.5 3.2 70 2.2 NW 28 37 15 20 1019.9 1019.9 -
04/05:00am 8.3 1.5 3.2 70 2.2 NW 28 37 15 20 1019.8 1019.8 -
04/04:30am 8.0 1.5 2.9 70 2.2 NW 26 37 14 20 1019.9 1019.9 -
04/04:00am 7.4 0.5 2.5 71 2.0 NW 28 41 15 22 1019.9 1019.9 -
04/03:30am 7.7 0.8 2.8 71 2.1 NW 28 39 15 21 1020.1 1020.1 -
04/03:00am 7.8 1.7 2.7 70 2.1 NW 24 35 13 19 1020.6 1020.6 0.0
04/02:30am 7.7 2.0 2.6 70 2.1 NW 22 30 12 16 1021.1 1021.1 -
04/02:00am 7.6 1.5 2.7 71 2.0 NW 24 33 13 18 1021.4 1021.4 -
04/01:30am 7.6 1.9 2.7 71 2.0 NW 22 32 12 17 1021.5 1021.5 -
04/01:00am 8.0 1.5 2.9 70 2.1 NW 26 33 14 18 1021.7 1021.7 -
04/12:30am 8.1 2.4 3.0 70 2.2 NW 22 30 12 16 1022.0 1022.0 -
04/12:00am 8.0 2.7 3.1 71 2.1 NW 20 28 11 15 1022.4 1022.4 -
 
Date/Time
EST
Temp
°C
App
Temp
°C
Dew
Point
Rel
Hum
%
Delta-T
°C
Wind Press
QNH
hPa
Press
MSL
hPa
Rain
since 9 am
mm
Dir
 
Spd
km/h
Gust
km/h
Spd
kts
Gust
kts
03/11:30pm 7.8 2.7 3.3 73 1.9 NW 19 26 10 14 1022.6 1022.6 -
03/11:00pm 7.6 2.3 3.1 73 1.9 NW 20 28 11 15 1022.7 1022.7 -
03/10:30pm 7.6 2.5 2.9 72 2.0 NW 19 24 10 13 1023.0 1023.0 -
03/10:00pm 7.7 2.9 2.8 71 2.0 NNW 17 24 9 13 1023.2 1023.2 -
03/09:30pm 7.8 2.5 2.9 71 2.1 NW 20 28 11 15 1023.7 1023.7 -
03/09:00pm 7.5 2.8 3.0 73 1.9 WNW 17 22 9 12 1024.0 1024.0 0.0
03/08:30pm 7.7 3.0 3.2 73 1.9 NW 17 22 9 12 1024.0 1024.0 -
03/08:00pm 7.9 2.9 3.8 75 1.8 NW 19 28 10 15 1024.2 1024.2 -
03/07:30pm 7.9 3.8 4.1 77 1.6 NW 15 20 8 11 1024.3 1024.3 -
03/07:00pm 8.1 3.7 4.5 78 1.6 NW 17 22 9 12 1024.2 1024.2 -
03/06:30pm 8.2 4.2 5.1 81 1.4 NW 15 22 8 12 1024.1 1024.1 -
03/06:00pm 8.3 3.8 5.9 85 1.1 NW 19 24 10 13 1024.2 1024.2 -
03/05:30pm 8.2 4.5 6.2 87 0.9 NW 15 20 8 11 1024.3 1024.3 -
03/05:00pm 8.5 5.2 6.6 88 0.9 NW 13 20 7 11 1024.4 1024.4 -
03/04:30pm 8.8 6.0 6.9 88 0.9 W 11 15 6 8 1024.6 1024.6 -
03/04:00pm 9.0 4.8 7.3 89 0.8 WNW 19 28 10 15 1024.6 1024.6 -
03/03:30pm 8.9 5.1 7.5 91 0.7 NW 17 22 9 12 1024.7 1024.7 -
03/03:00pm 8.8 4.4 7.4 91 0.7 NW 20 28 11 15 1024.7 1024.7 -
03/02:30pm 8.5 4.2 6.8 89 0.8 WNW 19 28 10 15 1024.8 1024.8 -
03/02:00pm 9.4 5.6 7.7 89 0.8 WNW 17 26 9 14 1025.0 1025.0 0.4
03/01:30pm 8.5 4.1 6.6 88 0.9 W 19 30 10 16 1025.4 1025.4 0.4
03/01:00pm 10.2 5.9 6.9 80 1.5 NW 19 24 10 13 1025.3 1025.3 0.0
03/12:30pm 10.8 6.3 7.1 78 1.8 NW 20 26 11 14 1025.6 1025.6 0.0
03/12:00pm 10.8 6.7 7.9 82 1.4 WNW 19 24 10 13 1026.2 1026.2 0.0
03/11:30am 9.4 4.4 6.3 81 1.4 NW 22 32 12 17 1026.6 1026.6 0.0
03/11:00am 9.9 4.9 6.4 79 1.6 NW 22 30 12 16 1027.1 1027.1 0.0
03/10:30am 9.4 4.3 5.9 79 1.6 NW 22 28 12 15 1027.3 1027.3 0.0
03/10:00am 9.4 4.8 6.5 82 1.3 NW 20 26 11 14 1027.2 1027.2 0.0
03/09:30am 8.5 4.8 6.5 87 0.9 NNW 15 20 8 11 1027.1 1027.1 0.0
03/09:00am 7.4 3.2 5.7 89 0.8 NW 17 24 9 13 1027.1 1027.1 1.2
03/08:30am 7.3 4.9 5.4 88 0.8 NW 7 9 4 5 1026.8 1026.8 1.2
03/08:00am 7.2 4.8 5.3 88 0.8 W 7 9 4 5 1026.8 1026.8 1.2
03/07:30am 6.5 3.2 4.7 88 0.8 WNW 11 15 6 8 1026.7 1026.7 1.2
03/07:00am 6.0 2.6 3.8 86 0.9 WNW 11 15 6 8 1026.4 1026.4 1.2
03/06:30am 6.9 3.2 4.2 83 1.2 W 13 17 7 9 1026.3 1026.3 1.2
03/06:00am 7.5 3.8 4.5 81 1.3 WNW 13 17 7 9 1026.3 1026.3 1.2
03/05:30am 8.2 5.0 5.1 81 1.4 WNW 11 20 6 11 1026.1 1026.1 1.2
03/05:00am 7.6 4.3 4.7 82 1.3 W 11 15 6 8 1025.9 1025.9 1.2
03/04:30am 8.5 5.3 4.9 78 1.6 WSW 11 15 6 8 1025.9 1025.9 1.2
03/04:00am 8.6 3.7 5.0 78 1.6 W 20 28 11 15 1026.2 1026.2 1.2
03/03:30am 7.7 3.3 5.0 83 1.2 SW 17 20 9 11 1026.3 1026.3 1.2
03/03:00am 8.7 4.1 5.4 80 1.5 SW 19 32 10 17 1026.7 1026.7 1.2
03/02:30am 7.9 3.5 4.7 80 1.4 SW 17 24 9 13 1026.7 1026.7 1.2
03/02:00am 8.2 3.3 5.0 80 1.4 SW 20 28 11 15 1026.6 1026.6 1.2
03/01:30am 8.0 3.6 4.9 81 1.4 WSW 17 22 9 12 1026.5 1026.5 1.2
03/01:00am 8.0 3.1 5.1 82 1.3 SW 20 28 11 15 1026.4 1026.4 1.2
03/12:30am 8.6 2.2 5.2 79 1.5 SW 28 41 15 22 1026.7 1026.7 1.2
03/12:00am 7.7 2.4 4.8 82 1.3 SW 22 30 12 16 1026.8 1026.8 1.2
 
Date/Time
EST
Temp
°C
App
Temp
°C
Dew
Point
Rel
Hum
%
Delta-T
°C
Wind Press
QNH
hPa
Press
MSL
hPa
Rain
since 9 am
mm
Dir
 
Spd
km/h
Gust
km/h
Spd
kts
Gust
kts
02/11:30pm 8.2 2.5 5.1 81 1.4 SW 24 32 13 17 1026.9 1026.9 1.2
02/11:00pm 7.6 1.8 4.2 79 1.5 SW 24 35 13 19 1026.9 1026.9 1.2
02/10:30pm 8.6 2.4 4.4 75 1.8 SW 26 33 14 18 1026.7 1026.7 1.0
02/10:00pm 9.1 3.3 4.5 73 2.0 WSW 24 33 13 18 1026.6 1026.6 1.0
02/09:30pm 9.1 2.5 4.1 71 2.2 SW 28 37 15 20 1026.4 1026.4 1.0
02/09:00pm 8.6 2.1 4.6 76 1.8 SW 28 39 15 21 1026.1 1026.1 1.0
02/08:30pm 8.1 1.2 4.5 78 1.6 SSW 30 41 16 22 1025.9 1025.9 1.0
02/08:00pm 8.5 2.4 4.7 77 1.7 SW 26 35 14 19 1025.6 1025.6 1.0
02/07:30pm 9.0 1.6 5.0 76 1.8 SW 33 43 18 23 1025.4 1025.4 1.0
02/07:00pm 9.1 3.7 4.7 74 1.9 SW 22 30 12 16 1024.9 1024.9 1.0
02/06:30pm 8.8 1.8 4.0 72 2.1 SW 30 39 16 21 1024.7 1024.7 1.0
02/06:00pm 9.1 1.7 4.1 71 2.2 SW 32 44 17 24 1024.4 1024.4 1.0
02/05:30pm 8.9 2.0 4.5 74 1.9 SW 30 39 16 21 1024.2 1024.2 1.0
02/05:00pm 9.0 2.7 4.0 71 2.2 WSW 26 33 14 18 1023.7 1023.7 1.0
02/04:30pm 9.0 1.2 4.8 75 1.9 SW 35 57 19 31 1023.8 1023.8 1.0
02/04:25pm 9.2 2.3 4.8 74 2.0 SW 30 50 16 27 1023.8 1023.8 1.0
02/04:00pm 8.3 1.3 3.9 74 1.9 SW 30 44 16 24 1023.4 1023.4 1.0
02/03:43pm 11.0 3.5 4.5 64 2.9 SW 33 59 18 32 1023.2 1023.2 0.8
02/03:30pm 11.1 5.0 5.0 66 2.8 WSW 26 35 14 19 1022.9 1022.9 0.8
02/03:00pm 10.9 2.7 4.6 65 2.8 SW 37 48 20 26 1022.3 1022.3 0.8
02/02:30pm 11.3 2.6 4.1 61 3.2 SW 39 50 21 27 1021.8 1021.8 0.8
02/02:00pm 11.5 3.9 5.8 68 2.6 SW 35 50 19 27 1021.5 1021.5 0.8
02/01:30pm 10.1 1.5 4.7 69 2.4 SW 39 57 21 31 1021.2 1021.2 0.8
02/01:00pm 10.7 2.3 5.5 70 2.4 SW 39 52 21 28 1020.8 1020.8 0.8

Other Formats:

Comma delimited format used in spreadsheet applications
http://www.bom.gov.au/fwo/IDV60801/IDV60801.94911.axf

JavaScript Object Notation format (JSON) in row-major order
http://www.bom.gov.au/fwo/IDV60801/IDV60801.94911.json